Airport ICAO


14:11 UTC

25°C

Broken clouds


An affordable passengers' Moving Map for your aircraft. Made for the iPad and the iPhone
More information here

LIMG Albenga


Albenga ITALY   VFR


METAR LIMG 231350Z VRB03KT 9999 BKN030 25/20 Q1017 0h21min





NOTAMS

OPEN